createdAt,value
2022-09-03T00:05:51.670Z,183.13
2022-09-03T00:12:54.279Z,222.70
2022-09-03T00:20:17.431Z,192.07
2022-09-03T00:27:22.662Z,219.15
2022-09-03T00:34:32.761Z,187.20
2022-09-03T00:41:44.336Z,204.77
2022-09-03T00:49:07.832Z,206.35
2022-09-03T00:56:36.706Z,163.10
2022-09-03T01:03:51.181Z,162.05
2022-09-03T01:11:03.089Z,176.80
2022-09-03T01:18:26.302Z,156.27
2022-09-03T01:25:41.057Z,173.02
2022-09-03T01:33:11.487Z,188.27
2022-09-03T01:40:36.095Z,193.52
2022-09-03T01:47:56.236Z,153.27
2022-09-03T01:55:17.084Z,157.88
2022-09-03T02:02:21.299Z,165.88
2022-09-03T02:09:23.144Z,146.25
2022-09-03T02:16:28.776Z,193.80
2022-09-03T02:23:30.888Z,185.70
2022-09-03T02:30:32.638Z,156.23
2022-09-03T02:37:34.921Z,147.60
2022-09-03T02:44:37.684Z,150.48
2022-09-03T02:51:41.774Z,151.23
2022-09-03T02:58:44.339Z,159.25
2022-09-03T03:05:55.975Z,161.20
2022-09-03T03:12:57.630Z,174.75
2022-09-03T03:19:59.320Z,185.00
2022-09-03T03:27:00.971Z,196.95
2022-09-03T03:34:02.987Z,202.88
2022-09-03T03:41:24.051Z,222.30
2022-09-03T03:48:26.168Z,232.68
2022-09-03T03:55:27.782Z,196.80
2022-09-03T04:02:29.479Z,248.75
2022-09-03T04:09:31.133Z,179.43
2022-09-03T04:16:33.067Z,157.07
2022-09-03T04:23:37.126Z,160.07
2022-09-03T04:30:38.836Z,155.60
2022-09-03T04:37:40.457Z,163.38
2022-09-03T04:44:42.156Z,150.55
2022-09-03T04:51:44.863Z,160.10
2022-09-03T04:58:46.824Z,173.75
2022-09-03T05:05:55.936Z,189.40
2022-09-03T05:13:01.395Z,177.23
2022-09-03T05:20:03.293Z,184.77
2022-09-03T05:27:04.910Z,175.60
2022-09-03T05:34:06.658Z,165.68
2022-09-03T05:41:09.531Z,153.73
2022-09-03T05:48:11.138Z,151.05
2022-09-03T05:55:13.557Z,151.27
2022-09-03T06:02:18.007Z,153.18
2022-09-03T06:09:23.468Z,152.02
2022-09-03T06:16:30.597Z,180.02
2022-09-03T06:23:34.790Z,173.75
2022-09-03T06:30:38.021Z,176.27
2022-09-03T06:37:42.747Z,158.63
2022-09-03T06:44:45.293Z,162.52
2022-09-03T06:51:47.823Z,148.65
2022-09-03T06:58:50.466Z,149.55
2022-09-03T07:05:52.116Z,171.32
2022-09-03T07:12:55.897Z,150.25
2022-09-03T07:19:57.575Z,139.55
2022-09-03T07:26:59.272Z,143.75
2022-09-03T07:34:10.254Z,139.82
2022-09-03T07:41:13.127Z,146.88
2022-09-03T07:48:28.723Z,141.55
2022-09-03T07:55:30.353Z,145.95
2022-09-03T08:02:32.064Z,145.95
2022-09-03T08:09:36.363Z,170.40
2022-09-03T08:16:43.347Z,161.57
2022-09-03T08:23:46.255Z,136.32
2022-09-03T08:30:47.885Z,122.05
2022-09-03T08:37:54.832Z,125.55
2022-09-03T08:45:00.478Z,125.75
2022-09-03T08:52:04.457Z,120.80
2022-09-03T08:59:06.046Z,120.70
2022-09-03T09:06:27.625Z,104.35
2022-09-03T09:13:42.661Z,94.82
2022-09-03T09:20:53.420Z,94.13
2022-09-03T09:27:59.498Z,77.00
2022-09-03T09:35:01.462Z,62.50
2022-09-03T09:42:09.556Z,56.10
2022-09-03T09:49:36.128Z,49.58
2022-09-03T09:56:37.777Z,38.92
2022-09-03T10:03:51.371Z,30.48
2022-09-03T10:10:53.009Z,24.98
2022-09-03T10:18:00.057Z,19.83
2022-09-03T10:25:02.630Z,11.88
2022-09-03T10:32:25.506Z,11.00
2022-09-03T10:39:58.885Z,10.80
2022-09-03T10:47:26.370Z,8.00
2022-09-03T10:54:43.152Z,12.63
2022-09-03T11:02:04.558Z,32.28
2022-09-03T11:09:38.008Z,42.03
2022-09-03T11:16:48.669Z,48.17
2022-09-03T11:24:08.769Z,49.10
2022-09-03T11:31:13.788Z,50.05
2022-09-03T11:38:15.508Z,60.55
2022-09-03T11:45:32.225Z,51.78
2022-09-03T11:52:40.254Z,58.55
2022-09-03T11:59:43.069Z,62.73
2022-09-03T12:07:08.919Z,57.13
2022-09-03T12:14:14.128Z,47.35
2022-09-03T12:21:16.937Z,59.42
2022-09-03T12:28:21.866Z,70.32
2022-09-03T12:42:46.069Z,70.60
2022-09-03T12:49:49.353Z,71.28
2022-09-03T12:56:56.561Z,65.78
2022-09-03T13:04:10.141Z,68.45
2022-09-03T13:11:18.186Z,75.85
2022-09-03T13:18:31.575Z,77.75
2022-09-03T13:25:56.045Z,68.97
2022-09-03T13:33:16.889Z,76.57
2022-09-03T13:40:23.622Z,72.38
2022-09-03T13:47:34.152Z,42.30
2022-09-03T13:54:49.100Z,30.98
2022-09-03T14:02:06.162Z,22.63
2022-09-03T14:09:26.693Z,16.85
2022-09-03T14:16:34.896Z,16.08
2022-09-03T14:23:51.480Z,15.05
2022-09-03T14:30:58.935Z,17.85
2022-09-03T14:38:37.979Z,30.80
2022-09-03T14:46:01.161Z,43.22
2022-09-03T14:53:20.907Z,46.00
2022-09-03T15:00:36.391Z,37.53
2022-09-03T15:07:54.167Z,33.92
2022-09-03T15:14:59.291Z,36.28
2022-09-03T15:22:19.034Z,49.33
2022-09-03T15:29:27.113Z,40.88
2022-09-03T15:36:36.266Z,40.30
2022-09-03T15:43:37.880Z,44.70
2022-09-03T15:51:10.524Z,32.78
2022-09-03T15:58:20.922Z,33.92
2022-09-03T16:05:39.178Z,29.15
2022-09-03T16:13:04.662Z,29.17
2022-09-03T16:20:19.333Z,26.77
2022-09-03T16:27:25.288Z,26.00
2022-09-03T16:34:35.972Z,45.85
2022-09-03T16:41:51.812Z,62.90
2022-09-03T16:49:33.680Z,70.78
2022-09-03T16:56:58.807Z,82.72
2022-09-03T17:04:09.882Z,89.65
2022-09-03T17:11:37.918Z,95.57
2022-09-03T17:19:02.213Z,104.88
2022-09-03T17:26:06.873Z,124.18
2022-09-03T17:33:45.590Z,142.82
2022-09-03T17:41:24.772Z,132.63
2022-09-03T17:48:49.709Z,117.15
2022-09-03T17:56:12.123Z,95.50
2022-09-03T18:03:19.077Z,103.75
2022-09-03T18:10:29.235Z,90.90
2022-09-03T18:17:59.162Z,115.88
2022-09-03T18:25:19.166Z,97.40
2022-09-03T18:32:39.334Z,93.13
2022-09-03T18:39:59.653Z,97.35
2022-09-03T18:55:20.573Z,104.43
2022-09-03T19:02:48.976Z,95.57
2022-09-03T19:10:14.674Z,105.60
2022-09-03T19:17:38.931Z,101.13
2022-09-03T19:24:59.346Z,113.00
2022-09-03T19:32:20.094Z,117.35
2022-09-03T19:39:49.622Z,143.55
2022-09-03T19:54:30.519Z,162.23
2022-09-03T20:01:53.894Z,146.95
2022-09-03T20:09:14.108Z,144.07
2022-09-03T20:16:22.660Z,144.18
2022-09-03T20:23:58.227Z,130.43
2022-09-03T20:31:08.941Z,116.07
2022-09-03T20:38:36.723Z,144.55
2022-09-03T20:46:06.050Z,134.90
2022-09-03T20:53:39.152Z,137.50
2022-09-03T21:01:05.293Z,148.68
2022-09-03T21:08:31.269Z,147.75
2022-09-03T21:15:44.832Z,161.32
2022-09-03T21:22:55.901Z,148.55
2022-09-03T21:29:59.434Z,138.10
2022-09-03T21:37:03.805Z,142.48
2022-09-03T21:44:15.145Z,135.05
2022-09-03T21:51:36.042Z,131.63
2022-09-03T21:58:49.819Z,141.57
2022-09-03T22:05:58.599Z,146.93
2022-09-03T22:13:58.944Z,145.27
2022-09-03T22:21:20.453Z,144.75
2022-09-03T22:28:31.114Z,148.63
2022-09-03T22:35:46.452Z,158.23
2022-09-03T22:42:51.052Z,149.48
2022-09-03T22:50:35.364Z,147.57
2022-09-03T22:57:41.004Z,142.68
2022-09-03T23:05:08.351Z,155.32
2022-09-03T23:12:50.258Z,144.95
2022-09-03T23:27:06.544Z,140.35
2022-09-03T23:34:09.522Z,146.07
2022-09-03T23:41:13.378Z,139.95
2022-09-03T23:48:53.348Z,146.02
